createdAt,value
2022-09-05T00:02:48.677Z,103373.63
2022-09-05T00:06:07.414Z,103379.59
2022-09-05T00:09:18.950Z,103377.88
2022-09-05T00:12:26.844Z,103379.59
2022-09-05T00:15:41.256Z,103382.16
2022-09-05T00:23:13.502Z,103382.16
2022-09-05T00:24:29.346Z,103377.81
2022-09-05T00:26:21.579Z,103388.00
2022-09-05T00:31:05.501Z,103382.03
2022-09-05T00:33:29.555Z,103385.44
2022-09-05T00:36:44.234Z,103382.81
2022-09-05T00:39:57.866Z,103380.28
2022-09-05T00:43:23.671Z,103387.03
2022-09-05T00:46:31.919Z,103384.59
2022-09-05T00:49:44.049Z,103391.25
2022-09-05T00:53:06.932Z,103391.38
2022-09-05T00:56:49.321Z,103388.84
2022-09-05T01:00:18.268Z,103393.06
2022-09-05T01:03:49.351Z,103392.13
2022-09-05T01:07:13.875Z,103381.88
2022-09-05T01:10:26.383Z,103390.41
2022-09-05T01:13:43.496Z,103386.13
2022-09-05T01:17:10.178Z,103392.94
2022-09-05T01:20:32.098Z,103398.91
2022-09-05T01:23:51.691Z,103390.41
2022-09-05T01:28:30.855Z,103389.44
2022-09-05T01:31:28.054Z,103391.91
2022-09-05T01:34:44.160Z,103389.34
2022-09-05T01:37:50.566Z,103391.06
2022-09-05T01:41:18.484Z,103399.72
2022-09-05T01:44:51.989Z,103397.97
2022-09-05T01:48:05.624Z,103400.44
2022-09-05T01:51:28.794Z,103405.66
2022-09-05T01:54:41.581Z,103399.72
2022-09-05T01:57:53.392Z,103397.97
2022-09-05T02:01:25.293Z,103401.38
2022-09-05T02:05:09.471Z,103396.28
2022-09-05T02:08:44.730Z,103393.81
2022-09-05T02:11:55.510Z,103395.44
2022-09-05T02:15:05.270Z,103393.72
2022-09-05T02:18:21.817Z,103392.75
2022-09-05T02:21:56.180Z,103382.38
2022-09-05T02:25:30.640Z,103386.66
2022-09-05T02:28:43.243Z,103396.88
2022-09-05T02:31:50.623Z,103390.06
2022-09-05T02:35:02.040Z,103389.16
2022-09-05T02:38:56.697Z,103392.63
2022-09-05T02:45:10.683Z,103393.50
2022-09-05T02:45:26.544Z,103396.06
2022-09-05T02:48:48.659Z,103398.69
2022-09-05T02:57:25.826Z,103397.88
2022-09-05T02:57:37.623Z,103393.59
2022-09-05T02:59:10.682Z,103398.66
2022-09-05T03:02:26.143Z,103396.13
2022-09-05T03:05:36.215Z,103390.94
2022-09-05T03:09:17.431Z,103398.56
2022-09-05T03:13:23.608Z,103395.19
2022-09-05T03:17:19.225Z,103404.59
2022-09-05T03:21:09.007Z,103391.78
2022-09-05T03:25:23.374Z,103400.28
2022-09-05T03:29:27.882Z,103404.44
2022-09-05T03:33:15.641Z,103408.78
2022-09-05T03:37:21.411Z,103411.31
2022-09-05T03:40:57.596Z,103408.72
2022-09-05T03:44:28.364Z,103413.84
2022-09-05T03:48:03.587Z,103402.78
2022-09-05T03:57:04.494Z,103406.94
2022-09-05T03:57:24.925Z,103411.16
2022-09-05T03:59:44.041Z,103416.22
2022-09-05T04:08:06.136Z,103408.59
2022-09-05T04:08:16.192Z,103418.78
2022-09-05T04:10:05.144Z,103418.72
2022-09-05T04:13:22.450Z,103424.78
2022-09-05T04:16:32.520Z,103428.13
2022-09-05T04:19:49.998Z,103420.50
2022-09-05T04:23:11.232Z,103429.03
2022-09-05T04:26:45.626Z,103424.66
2022-09-05T04:30:05.025Z,103425.47
2022-09-05T04:33:37.033Z,103427.16
2022-09-05T04:36:43.962Z,103417.81
2022-09-05T04:39:49.301Z,103424.66
2022-09-05T04:42:54.731Z,103422.97
2022-09-05T04:46:12.355Z,103427.31
2022-09-05T04:49:24.528Z,103422.16
2022-09-05T04:52:58.341Z,103419.66
2022-09-05T04:56:11.059Z,103419.53
2022-09-05T05:01:09.600Z,103423.88
2022-09-05T05:06:14.662Z,103429.91
2022-09-05T05:06:46.148Z,103424.00
2022-09-05T05:11:38.569Z,103429.13
2022-09-05T05:18:04.093Z,103436.00
2022-09-05T05:18:14.996Z,103433.50
2022-09-05T05:20:42.881Z,103434.41
2022-09-05T05:23:53.857Z,103430.06
2022-09-05T05:27:09.384Z,103437.00
2022-09-05T05:30:26.559Z,103445.63
2022-09-05T05:33:34.683Z,103438.00
2022-09-05T05:36:47.259Z,103440.56
2022-09-05T05:40:06.545Z,103445.78
2022-09-05T05:43:16.883Z,103447.47
2022-09-05T05:46:35.262Z,103447.56
2022-09-05T05:49:54.133Z,103446.69
2022-09-05T05:53:33.618Z,103436.50
2022-09-05T05:57:22.055Z,103451.94
2022-09-05T06:00:51.307Z,103460.56
2022-09-05T06:05:04.394Z,103441.84
2022-09-05T06:11:29.270Z,103453.81
2022-09-05T06:14:56.254Z,103447.03
2022-09-05T06:16:59.560Z,103442.88
2022-09-05T06:22:04.357Z,103452.28
2022-09-05T06:24:42.563Z,103451.44
2022-09-05T06:28:18.879Z,103451.50
2022-09-05T06:31:43.695Z,103466.94
2022-09-05T06:35:20.310Z,103456.75
2022-09-05T06:38:51.317Z,103443.16
2022-09-05T06:42:42.112Z,103443.31
2022-09-05T06:46:55.465Z,103448.63
2022-09-05T06:50:24.198Z,103437.63
2022-09-05T06:53:57.159Z,103439.41
2022-09-05T06:57:21.302Z,103444.53
2022-09-05T07:00:30.820Z,103441.13
2022-09-05T07:03:56.557Z,103443.69
2022-09-05T07:07:13.794Z,103447.97
2022-09-05T07:10:38.494Z,103453.13
2022-09-05T07:13:57.679Z,103453.13
2022-09-05T07:17:10.387Z,103449.69
2022-09-05T07:20:23.672Z,103456.53
2022-09-05T07:24:05.672Z,103453.13
2022-09-05T07:27:41.920Z,103453.97
2022-09-05T07:31:07.249Z,103458.25
2022-09-05T07:34:22.526Z,103458.25
2022-09-05T07:37:36.894Z,103453.13
2022-09-05T07:40:48.652Z,103452.25
2022-09-05T07:43:56.801Z,103455.69
2022-09-05T07:47:07.261Z,103448.00
2022-09-05T07:53:46.384Z,103453.13
2022-09-05T07:57:09.203Z,103455.72
2022-09-05T07:57:26.901Z,103458.28
2022-09-05T08:00:38.032Z,103454.84
2022-09-05T08:03:44.492Z,103454.88
2022-09-05T08:07:45.798Z,103460.84
2022-09-05T08:10:31.417Z,103460.00
2022-09-05T08:14:44.047Z,103454.00
2022-09-05T08:17:26.290Z,103459.16
2022-09-05T08:20:42.706Z,103465.16
2022-09-05T08:23:57.921Z,103458.31
2022-09-05T08:27:16.318Z,103454.88
2022-09-05T08:30:24.412Z,103448.88
2022-09-05T08:33:34.983Z,103455.75
2022-09-05T08:36:43.301Z,103443.75
2022-09-05T08:39:54.240Z,103441.19
2022-09-05T08:46:37.385Z,103439.47
2022-09-05T08:47:04.071Z,103441.19
2022-09-05T08:50:36.973Z,103442.03
2022-09-05T08:54:04.154Z,103446.31
2022-09-05T08:57:18.394Z,103441.16
2022-09-05T09:00:27.663Z,103431.75
2022-09-05T09:03:53.572Z,103429.19
2022-09-05T09:07:47.604Z,103434.31
2022-09-05T09:10:50.461Z,103430.03
2022-09-05T09:14:18.803Z,103438.59
2022-09-05T09:17:44.142Z,103428.31
2022-09-05T09:20:53.889Z,103421.44
2022-09-05T09:24:10.743Z,103420.56
2022-09-05T09:27:34.308Z,103404.25
2022-09-05T09:30:59.628Z,103406.88
2022-09-05T09:34:38.324Z,103398.25
2022-09-05T09:38:27.586Z,103396.53
2022-09-05T09:41:49.763Z,103395.63
2022-09-05T09:45:29.119Z,103394.75
2022-09-05T09:49:10.698Z,103386.97
2022-09-05T09:53:16.717Z,103389.53
2022-09-05T09:56:56.847Z,103380.91
2022-09-05T10:00:12.049Z,103388.63
2022-09-05T10:07:22.863Z,103386.03
2022-09-05T10:11:00.719Z,103381.69
2022-09-05T10:15:04.260Z,103370.50
2022-09-05T10:18:45.427Z,103378.16
2022-09-05T10:26:01.796Z,103363.44
2022-09-05T10:29:34.716Z,103353.97
2022-09-05T10:35:10.991Z,103355.69
2022-09-05T10:36:24.677Z,103346.16
2022-09-05T10:39:34.002Z,103346.00
2022-09-05T10:42:59.818Z,103338.25
2022-09-05T10:46:40.042Z,103341.72
2022-09-05T10:49:46.096Z,103343.50
2022-09-05T10:53:25.748Z,103340.13
2022-09-05T10:56:36.747Z,103344.38
2022-09-05T11:02:24.441Z,103347.88
2022-09-05T11:03:44.790Z,103340.09
2022-09-05T11:06:58.582Z,103340.81
2022-09-05T11:10:08.546Z,103347.69
2022-09-05T11:13:25.379Z,103342.53
2022-09-05T11:16:40.397Z,103332.16
2022-09-05T11:19:49.319Z,103333.94
2022-09-05T11:23:01.148Z,103328.78
2022-09-05T11:26:08.577Z,103326.06
2022-09-05T11:29:18.174Z,103319.91
2022-09-05T11:36:06.929Z,103307.66
2022-09-05T11:40:04.117Z,103316.03
2022-09-05T11:40:38.209Z,103308.31
2022-09-05T11:44:26.286Z,103310.16
2022-09-05T11:47:58.197Z,103315.53
2022-09-05T11:52:15.493Z,103312.25
2022-09-05T11:56:04.319Z,103313.03
2022-09-05T11:59:50.463Z,103304.25
2022-09-05T12:03:58.966Z,103307.56
2022-09-05T12:07:30.307Z,103292.88
2022-09-05T12:10:49.332Z,103283.97
2022-09-05T12:14:21.468Z,103288.81
2022-09-05T12:17:35.454Z,103292.56
2022-09-05T12:20:58.057Z,103291.91
2022-09-05T12:25:15.120Z,103288.69
2022-09-05T12:27:46.056Z,103290.41
2022-09-05T12:31:22.146Z,103288.72
2022-09-05T12:36:11.324Z,103280.19
2022-09-05T12:40:48.175Z,103287.97
2022-09-05T12:42:08.573Z,103281.19
2022-09-05T12:45:24.134Z,103275.13
2022-09-05T12:48:47.458Z,103269.13
2022-09-05T12:52:02.453Z,103268.13
2022-09-05T12:55:12.599Z,103264.38
2022-09-05T13:02:57.087Z,103259.88
2022-09-05T13:03:07.314Z,103259.63
2022-09-05T13:05:57.010Z,103262.13
2022-09-05T13:09:10.374Z,103245.84
2022-09-05T13:14:47.252Z,103248.41
2022-09-05T13:15:51.084Z,103250.13
2022-09-05T13:19:07.611Z,103245.91
2022-09-05T13:22:16.868Z,103257.19
2022-09-05T13:25:27.338Z,103254.00
2022-09-05T13:28:46.324Z,103259.94
2022-09-05T13:38:01.557Z,103248.69
2022-09-05T13:38:02.656Z,103252.94
2022-09-05T13:39:06.833Z,103253.84
2022-09-05T13:42:18.291Z,103256.53
2022-09-05T13:45:24.980Z,103253.91
2022-09-05T13:52:29.118Z,103246.25
2022-09-05T13:55:41.951Z,103245.53
2022-09-05T13:58:56.541Z,103245.56
2022-09-05T14:02:27.706Z,103236.13
2022-09-05T14:05:37.628Z,103237.91
2022-09-05T14:12:37.977Z,103227.63
2022-09-05T14:15:55.574Z,103235.34
2022-09-05T14:19:20.150Z,103225.03
2022-09-05T14:22:51.395Z,103213.88
2022-09-05T14:26:00.207Z,103219.03
2022-09-05T14:29:15.132Z,103215.66
2022-09-05T14:37:49.008Z,103221.75
2022-09-05T14:37:49.417Z,103211.44
2022-09-05T14:41:36.907Z,103214.78
2022-09-05T14:45:16.530Z,103219.88
2022-09-05T14:48:45.724Z,103207.69
2022-09-05T14:51:58.260Z,103213.66
2022-09-05T14:55:21.693Z,103206.75
2022-09-05T15:02:49.758Z,103202.47
2022-09-05T15:02:58.245Z,103201.59
2022-09-05T15:05:41.824Z,103199.88
2022-09-05T15:11:24.103Z,103188.56
2022-09-05T15:12:33.253Z,103189.25
2022-09-05T15:15:52.416Z,103188.22
2022-09-05T15:19:11.342Z,103181.22
2022-09-05T15:22:27.308Z,103175.13
2022-09-05T15:25:46.133Z,103165.63
2022-09-05T15:29:13.077Z,103175.19
2022-09-05T15:32:22.645Z,103177.16
2022-09-05T15:35:38.551Z,103182.34
2022-09-05T15:38:55.337Z,103178.03
2022-09-05T15:42:15.562Z,103172.09
2022-09-05T15:45:26.244Z,103169.75
2022-09-05T15:48:33.898Z,103173.34
2022-09-05T15:51:47.587Z,103176.03
2022-09-05T15:54:55.077Z,103178.81
2022-09-05T15:58:06.378Z,103184.97
2022-09-05T16:01:19.635Z,103180.63
2022-09-05T16:10:31.447Z,103172.91
2022-09-05T16:10:49.079Z,103173.88
2022-09-05T16:15:51.468Z,103173.91
2022-09-05T16:23:14.769Z,103171.34
2022-09-05T16:23:27.597Z,103168.91
2022-09-05T16:25:46.298Z,103170.63
2022-09-05T16:28:56.914Z,103160.38
2022-09-05T16:32:18.328Z,103157.75
2022-09-05T16:35:26.763Z,103163.00
2022-09-05T16:38:49.586Z,103167.41
2022-09-05T16:41:58.998Z,103162.31
2022-09-05T16:45:11.139Z,103160.66
2022-09-05T16:48:42.855Z,103152.25
2022-09-05T16:51:50.629Z,103158.22
2022-09-05T16:55:03.047Z,103154.88
2022-09-05T16:58:14.569Z,103155.75
2022-09-05T17:01:31.928Z,103143.66
2022-09-05T17:04:56.352Z,103156.59
2022-09-05T17:08:20.169Z,103155.91
2022-09-05T17:11:29.432Z,103151.66
2022-09-05T17:14:41.648Z,103154.34
2022-09-05T17:18:22.617Z,103145.78
2022-09-05T17:22:02.483Z,103150.19
2022-09-05T17:29:18.475Z,103152.75
2022-09-05T17:29:28.583Z,103156.22
2022-09-05T17:32:46.750Z,103160.50
2022-09-05T17:36:10.426Z,103158.06
2022-09-05T17:39:44.333Z,103157.31
2022-09-05T17:42:55.289Z,103158.91
2022-09-05T17:46:21.506Z,103159.00
2022-09-05T17:49:45.062Z,103159.88
2022-09-05T17:53:24.879Z,103155.66
2022-09-05T17:56:38.183Z,103153.13
2022-09-05T17:59:43.588Z,103159.97
2022-09-05T18:02:57.326Z,103155.81
2022-09-05T18:06:04.373Z,103159.22
2022-09-05T18:09:28.352Z,103154.94
2022-09-05T18:13:13.158Z,103151.53
2022-09-05T18:16:12.407Z,103166.09
2022-09-05T18:19:57.848Z,103170.38
2022-09-05T18:23:39.322Z,103165.31
2022-09-05T18:33:55.516Z,103164.47
2022-09-05T18:38:00.135Z,103168.78
2022-09-05T18:41:15.930Z,103171.34
2022-09-05T18:44:22.155Z,103172.22
2022-09-05T18:47:35.020Z,103167.06
2022-09-05T18:50:46.925Z,103167.97
2022-09-05T18:53:52.766Z,103161.97
2022-09-05T18:57:26.369Z,103156.84
2022-09-05T19:00:46.933Z,103157.69
2022-09-05T19:03:56.247Z,103158.56
2022-09-05T19:07:09.023Z,103152.56
2022-09-05T19:10:35.948Z,103155.13
2022-09-05T19:13:44.689Z,103153.47
2022-09-05T19:16:50.469Z,103138.06
2022-09-05T19:20:32.622Z,103154.34
2022-09-05T19:23:51.082Z,103146.63
2022-09-05T19:27:25.184Z,103153.47
2022-09-05T19:36:52.706Z,103144.06
2022-09-05T19:37:13.585Z,103141.50
2022-09-05T19:37:29.593Z,103146.66
2022-09-05T19:47:34.369Z,103143.25
2022-09-05T19:47:46.936Z,103147.53
2022-09-05T19:48:07.329Z,103140.69
2022-09-05T19:51:17.452Z,103141.53
2022-09-05T19:54:31.877Z,103141.53
2022-09-05T19:57:37.305Z,103143.25
2022-09-05T20:00:47.442Z,103131.28
2022-09-05T20:04:25.951Z,103134.72
2022-09-05T20:07:33.462Z,103122.75
2022-09-05T20:10:40.280Z,103130.44
2022-09-05T20:13:45.583Z,103128.75
2022-09-05T20:16:53.115Z,103127.06
2022-09-05T20:20:09.489Z,103121.91
2022-09-05T20:23:15.064Z,103118.50
2022-09-05T20:26:24.579Z,103124.47
2022-09-05T20:29:54.802Z,103115.94
2022-09-05T20:33:03.424Z,103112.53
2022-09-05T20:42:52.471Z,103109.13
2022-09-05T20:43:21.189Z,103109.97
2022-09-05T20:43:35.470Z,103109.97
2022-09-05T20:52:10.925Z,103113.38
2022-09-05T20:54:16.035Z,103106.53
2022-09-05T20:54:18.418Z,103104.81
2022-09-05T20:57:22.902Z,103109.13
2022-09-05T21:00:29.977Z,103106.56
2022-09-05T21:03:40.000Z,103095.41
2022-09-05T21:06:48.281Z,103100.56
2022-09-05T21:09:56.464Z,103107.41
2022-09-05T21:13:02.350Z,103096.28
2022-09-05T21:16:18.444Z,103105.69
2022-09-05T21:19:25.765Z,103101.44
2022-09-05T21:22:40.650Z,103093.69
2022-09-05T21:25:54.535Z,103105.69
2022-09-05T21:29:16.336Z,103102.25
2022-09-05T21:32:23.098Z,103103.13
2022-09-05T21:35:34.289Z,103100.56
2022-09-05T21:38:43.008Z,103104.81
2022-09-05T21:41:50.308Z,103104.81
2022-09-05T21:47:37.836Z,103100.50
2022-09-05T21:48:32.125Z,103091.97
2022-09-05T21:51:38.742Z,103094.53
2022-09-05T21:59:18.567Z,103096.25
2022-09-05T21:59:24.724Z,103088.53
2022-09-05T22:01:51.898Z,103093.66
2022-09-05T22:05:03.182Z,103090.25
2022-09-05T22:08:09.898Z,103090.25
2022-09-05T22:11:16.858Z,103092.81
2022-09-05T22:14:25.441Z,103100.47
2022-09-05T22:17:30.871Z,103084.25
2022-09-05T22:20:40.120Z,103086.78
2022-09-05T22:23:49.430Z,103074.84
2022-09-05T22:27:11.262Z,103079.94
2022-09-05T22:30:18.641Z,103072.28
2022-09-05T22:33:25.134Z,103073.09
2022-09-05T22:36:32.807Z,103083.34
2022-09-05T22:39:38.299Z,103087.63
2022-09-05T22:42:43.789Z,103073.09
2022-09-05T22:45:48.983Z,103077.31
2022-09-05T22:48:54.226Z,103073.06
2022-09-05T22:52:01.078Z,103074.78
2022-09-05T22:55:08.099Z,103072.22
2022-09-05T22:58:15.652Z,103065.38
2022-09-05T23:01:21.439Z,103069.66
2022-09-05T23:04:26.955Z,103058.56
2022-09-05T23:07:34.957Z,103057.69
2022-09-05T23:10:40.310Z,103051.72
2022-09-05T23:13:46.821Z,103058.53
2022-09-05T23:16:52.043Z,103051.72
2022-09-05T23:19:57.609Z,103053.41
2022-09-05T23:23:06.846Z,103049.91
2022-09-05T23:26:16.641Z,103047.44
2022-09-05T23:29:22.141Z,103046.56
2022-09-05T23:32:28.008Z,103043.06
2022-09-05T23:35:35.318Z,103048.22
2022-09-05T23:38:42.993Z,103045.66
2022-09-05T23:41:48.397Z,103036.31
2022-09-05T23:44:54.072Z,103042.28
2022-09-05T23:47:59.593Z,103042.22
2022-09-05T23:51:09.195Z,103042.25
2022-09-05T23:54:16.441Z,103038.75
2022-09-05T23:57:23.586Z,103036.25
